Terminal Aerodrome Forecast
Issued by NWS Portland, ME

Home | Current Version | Previous Version | Text Only | Print | Product List | Glossary On
Versions: 1 2 3 4 5 6 7 8 9 10 11 12 13 14 15 16 17 18
000
FTUS41 KGYX 010520
TAFCON
TAF
KCON 010520Z 0106/0206 36003KT P6SM SCT200
     FM011100 36005KT 6SM BR OVC025
     FM011400 36008KT 6SM -RA OVC015
     FM012000 35012G22KT 4SM -RA BR OVC015
     FM020300 33015G22KT 3SM -SN BR OVC007=

USA.gov is the U.S. government's official web portal to all federal, state and local government web resources and services.